Log in

NYSE:UEUrban Edge Properties Institutional Ownership

$9.37
-0.10 (-1.06 %)
(As of 05/22/2020 04:00 PM ET)
Add
Compare
Today's Range
$9.18
Now: $9.37
$9.54
50-Day Range
$7.64
MA: $9.18
$11.79
52-Week Range
$6.98
Now: $9.37
$21.74
Volume462,877 shs
Average Volume1.48 million shs
Market Capitalization$1.09 billion
P/E Ratio8.52
Dividend Yield9.39%
Beta1.54

Institutional Ownership

Institutional Ownership Changes (13F Filings) for Urban Edge Properties (NYSE:UE)

Institutional Ownership Percentage: 96.70%

Institutional Buying and Selling by Quarter


Urban Edge Properties (NYSE UE) Institutional Buying and Selling

Reporting DateHedge FundShares HeldMarket Value% of PortfolioQuarterly Change in SharesOwnership in Company
5/18/2020Advisor Group Holdings Inc.17,414$0.15M0.0%N/A0.015%
5/15/2020Engineers Gate Manager LP47,653$0.42M0.0%+75.5%0.041%
5/15/2020Squarepoint Ops LLC30,574$0.27M0.0%-43.0%0.026%
5/15/2020Meeder Asset Management Inc.32,798$0.29M0.0%+792.2%0.028%
5/15/2020Paloma Partners Management Co18,451$0.16M0.0%-6.2%0.016%
5/15/2020Jane Street Group LLC26,235$0.23M0.0%N/A0.023%
5/15/2020Invesco Ltd.2,389,313$21.05M0.0%+3.2%2.050%
5/15/2020Tudor Investment Corp Et Al50,402$0.44M0.0%-47.7%0.043%
5/15/2020Morgan Stanley116,500$1.03M0.0%-62.1%0.100%
5/15/2020Two Sigma Investments LP109,901$0.97M0.0%-56.5%0.094%
5/15/2020Two Sigma Advisers LP273,700$2.41M0.0%-38.7%0.235%
5/15/2020Chilton Capital Management LLC452,408$3.99M0.4%+7.4%0.388%
5/15/2020Balyasny Asset Management LLC539,446$4.75M0.1%N/A0.463%
5/15/2020Cipher Capital LP19,613$0.17M0.1%N/A0.017%
5/15/2020Thrivent Financial for Lutherans87,591$0.77M0.0%+191.1%0.075%
5/14/2020Employees Retirement System of Texas24,523$0.22M0.0%-53.3%0.021%
5/14/2020Wells Fargo & Company MN294,643$2.60M0.0%+20.3%0.253%
5/14/2020Geode Capital Management LLC2,108,461$18.58M0.0%+6.7%1.809%
5/14/2020Commonwealth of Pennsylvania Public School Empls Retrmt SYS27,093$0.24M0.0%+33.4%0.023%
5/14/2020Nomura Asset Management Co. Ltd.80,500$0.71M0.0%+8.3%0.069%
5/14/2020Legal & General Group Plc676,100$5.96M0.0%+11.1%0.580%
5/14/2020Massachusetts Financial Services Co. MA6,036,421$53.18M0.0%+39.3%5.180%
5/14/2020Deutsche Bank AG129,902$1.15M0.0%-71.5%0.111%
5/14/2020Alliancebernstein L.P.337,651$2.98M0.0%+2.6%0.290%
5/14/2020Asset Management One Co. Ltd.184,308$1.62M0.0%-24.2%0.158%
5/14/2020Nuveen Asset Management LLC502,000$4.42M0.0%-35.5%0.431%
5/14/2020Centersquare Investment Management LLC2,213,080$19.50M0.4%+483.1%1.899%
5/13/2020Amica Retiree Medical Trust16,345$0.14M0.1%+49.2%0.014%
5/13/2020AlphaCrest Capital Management LLC54,384$0.48M0.1%-15.9%0.047%
5/13/2020Parametric Portfolio Associates LLC211,110$1.86M0.0%+20.3%0.181%
5/13/2020Wolverine Asset Management LLC411,593$3.63M0.1%+248.7%0.353%
5/13/2020BNP Paribas Arbitrage SA75,344$0.66M0.0%+117.1%0.065%
5/13/2020Horizon Kinetics Asset Management LLC18,236$0.16M0.0%+20.9%0.016%
5/13/2020Cbre Clarion Securities LLC1,362,390$12M0.3%+39.4%1.169%
5/13/2020Federated Hermes Inc.35,296$0.31M0.0%-86.4%0.030%
5/13/2020Pictet Asset Management Ltd.34,400$0.30M0.0%+40.4%0.030%
5/13/2020Toronto Dominion Bank30,646$0.27M0.0%N/A0.026%
5/13/2020Dynamic Technology Lab Private Ltd23,578$0.21M0.0%N/A0.020%
5/12/2020Sontag Advisory LLC15,204$0.13M0.0%N/A0.013%
5/12/2020Citigroup Inc.98,211$0.87M0.0%+16.4%0.084%
5/12/2020Principal Financial Group Inc.340,370$3M0.0%-30.4%0.292%
5/12/2020Victory Capital Management Inc.126,145$1.11M0.0%+131.0%0.108%
5/12/2020JPMorgan Chase & Co.1,725,972$15.21M0.0%-67.7%1.481%
5/12/2020Virginia Retirement Systems ET AL28,700$0.25M0.0%-29.0%0.025%
5/11/2020State Street Corp6,328,757$55.76M0.0%+4.8%5.431%
5/11/2020WINTON GROUP Ltd402,816$3.55M0.1%-15.3%0.346%
5/11/2020Mutual of America Capital Management LLC107,232$0.95M0.0%+3.3%0.092%
5/11/2020Mitsubishi UFJ Kokusai Asset Management Co. Ltd.29,708$0.26M0.0%+23.9%0.025%
5/8/2020Northwestern Mutual Investment Management Company LLC39,998$0.35M0.0%+21.6%0.034%
5/8/2020Teachers Insurance & Annuity Association of America44,280$0.39M0.1%+29.2%0.038%
5/8/2020CWM Advisors LLC24,205$0.21M0.1%N/A0.021%
5/8/2020Swiss National Bank235,109$2.07M0.0%+1.4%0.202%
5/8/2020IndexIQ Advisors LLC58,905$0.52M0.0%-6.4%0.051%
5/8/2020Oppenheimer Asset Management Inc.4,320$38K0.0%-86.0%0.004%
5/6/2020First Trust Advisors LP78,350$0.69M0.0%+75.4%0.067%
5/6/2020Russell Investments Group Ltd.265,750$2.30M0.0%+982.2%0.228%
5/6/2020Bank of New York Mellon Corp3,278,018$28.88M0.0%+5.4%2.813%
5/6/2020Rhumbline Advisers422,246$3.72M0.0%+4.1%0.362%
5/5/2020Arizona State Retirement System28,459$0.25M0.0%-56.4%0.024%
5/5/2020Aperio Group LLC77,840$0.69M0.0%+81.7%0.067%
5/4/2020American International Group Inc.290,862$2.56M0.0%-0.6%0.240%
5/4/2020Victory Capital Management Inc.126,145$1.11M0.0%+131.0%0.108%
5/2/2020SG Americas Securities LLC140,675$1.24M0.0%-20.8%0.116%
5/1/2020BlackRock Inc.16,220,352$142.90M0.0%-1.5%13.359%
5/1/2020State of Michigan Retirement System32,000$0.28M0.0%-5.6%0.026%
5/1/2020Comerica Bank66,262$0.60M0.0%-1.4%0.055%
5/1/2020UBS Group AG208,082$1.83M0.0%-45.1%0.171%
4/29/2020Dupont Capital Management Corp7,994$70K0.0%-22.8%0.007%
4/29/2020New York State Teachers Retirement System152,822$1.35M0.0%+5.8%0.126%
4/28/2020State of Michigan Retirement System282$32K0.0%-99.2%0.000%
4/27/2020Texas Permanent School Fund98,059$0.86M0.0%+24.5%0.081%
4/27/2020Sumitomo Mitsui Trust Holdings Inc.242,234$2.13M0.0%+21.9%0.200%
4/23/2020Strs Ohio181,046$1.60M0.0%+10.5%0.149%
4/23/2020Envestnet Asset Management Inc.93,892$0.83M0.0%-5.6%0.077%
4/17/2020Nisa Investment Advisors LLC38,641$0.34M0.0%-57.6%0.032%
4/14/2020Resolution Capital Ltd4,883,966$43.03M1.8%N/A4.023%
4/13/2020Manning & Napier Group LLC192,630$1.70M0.0%-22.7%0.159%
4/6/2020Timbercreek Investment Management Inc.447,391$3.47M0.9%+143.6%0.368%
3/18/2020Macquarie Group Ltd.35,148$0.68M0.0%-27.2%0.029%
3/5/2020Nuveen Asset Management LLC778,142$14.92M0.0%+56.2%0.641%
3/3/2020Norges Bank1,565,343$30.02M0.0%N/A1.290%
2/28/2020Macquarie Group Ltd.35,148$0.68M0.0%-27.2%0.029%
2/26/2020Pearl River Capital LLC11,214$0.22M0.1%+3,780.3%0.009%
2/20/2020Geode Capital Management LLC1,976,461$37.91M0.0%+6.7%1.628%
2/19/2020Mason Street Advisors LLC61,253$1.18M0.0%+1.5%0.050%
2/18/2020Profund Advisors LLC14,608$0.28M0.0%-15.3%0.012%
2/18/2020Alliancebernstein L.P.329,141$6.31M0.0%+0.3%0.271%
2/18/2020Man Group plc37,700$0.72M0.0%N/A0.031%
2/14/2020Point72 Hong Kong Ltd9,309$0.18M0.0%N/A0.008%
2/14/2020Advisors Asset Management Inc.17,957$0.34M0.0%+2,193.4%0.015%
2/14/2020Cubist Systematic Strategies LLC145,526$2.79M0.1%+1,112.7%0.120%
2/14/2020AQR Capital Management LLC20,621$0.40M0.0%-7.2%0.017%
2/14/2020Blueshift Asset Management LLC48,110$0.92M0.1%N/A0.040%
2/14/2020Schonfeld Strategic Advisors LLC74,430$1.43M0.0%N/A0.061%
2/14/2020Bank of America Corp DE434,394$8.33M0.0%+4.6%0.358%
2/14/2020UBS Asset Management Americas Inc.536,786$10.30M0.0%+25.8%0.443%
2/14/2020Chilton Capital Management LLC421,276$8.08M0.6%-7.9%0.348%
2/14/2020Bank of New York Mellon Corp3,109,008$59.63M0.0%+6.1%2.565%
2/14/2020Marshall Wace North America L.P.3,491$67K0.0%N/A0.003%
2/14/2020Goldman Sachs Group Inc.4,338,521$83.21M0.0%+124.9%3.579%
(Data available from 1/1/2016 forward)
This page was last updated on 5/24/2020 by MarketBeat.com Staff

Enter your email address below to receive a concise daily summary of analysts' upgrades, downgrades and new coverage with MarketBeat.com's FREE daily email newsletter.